N9526G -KZPH
Flight info
| Callsign | N9526G |
|---|---|
| Flight time | N/A |
| Altitude | VFR/025 |
| Route | VFR |
| Aircraft |
Departure
| Time | N/A |
|---|---|
| Airport | - |
Arrival
| Time | 2026-04-26 03:42 |
|---|---|
| Airport | Zephyrhills Municipal Airport (KZPH) |
| Time | Latitude | Longitude | Altitude | Speed | Heading |
|---|---|---|---|---|---|
| 2026-04-26 03:25 | 27.85316 | -82.37620 | 1038 ft | 87 kts | 139° |
| 2026-04-26 03:25 | 27.84780 | -82.37536 | 1054 ft | 81 kts | 216° |
| 2026-04-26 03:25 | 27.84664 | -82.38097 | 1042 ft | 85 kts | 298° |
| 2026-04-26 03:25 | 27.85184 | -82.38472 | 999 ft | 100 kts | 351° |
| 2026-04-26 03:26 | 27.85866 | -82.38292 | 1031 ft | 105 kts | 33° |
| 2026-04-26 03:26 | 27.86460 | -82.37810 | 1066 ft | 107 kts | 38° |
| 2026-04-26 03:26 | 27.87035 | -82.37280 | 1090 ft | 110 kts | 41° |
| 2026-04-26 03:26 | 27.87633 | -82.36725 | 1126 ft | 110 kts | 39° |
| 2026-04-26 03:27 | 27.88192 | -82.36127 | 1124 ft | 114 kts | 45° |
| 2026-04-26 03:27 | 27.88744 | -82.35494 | 1171 ft | 111 kts | 45° |
| 2026-04-26 03:27 | 27.89285 | -82.34860 | 1168 ft | 114 kts | 45° |
| 2026-04-26 03:27 | 27.89842 | -82.34217 | 1304 ft | 113 kts | 46° |
| 2026-04-26 03:28 | 27.90358 | -82.33596 | 1542 ft | 104 kts | 47° |
| 2026-04-26 03:28 | 27.90918 | -82.33082 | 1694 ft | 107 kts | 36° |
| 2026-04-26 03:28 | 27.91523 | -82.32592 | 1862 ft | 107 kts | 36° |
| 2026-04-26 03:28 | 27.92119 | -82.32086 | 2031 ft | 107 kts | 38° |
| 2026-04-26 03:29 | 27.92729 | -82.31609 | 2194 ft | 107 kts | 32° |
| 2026-04-26 03:29 | 27.93375 | -82.31191 | 2339 ft | 108 kts | 30° |
| 2026-04-26 03:29 | 27.94050 | -82.30778 | 2446 ft | 111 kts | 28° |
| 2026-04-26 03:29 | 27.94736 | -82.30396 | 2535 ft | 111 kts | 26° |
| 2026-04-26 03:30 | 27.95466 | -82.30032 | 2498 ft | 117 kts | 24° |
| 2026-04-26 03:30 | 27.96224 | -82.29680 | 2497 ft | 117 kts | 23° |
| 2026-04-26 03:30 | 27.96969 | -82.29365 | 2551 ft | 114 kts | 22° |
| 2026-04-26 03:30 | 27.97701 | -82.29023 | 2554 ft | 115 kts | 24° |
| 2026-04-26 03:31 | 27.98442 | -82.28675 | 2593 ft | 112 kts | 24° |
| 2026-04-26 03:31 | 27.99167 | -82.28342 | 2606 ft | 113 kts | 21° |
| 2026-04-26 03:31 | 27.99894 | -82.28034 | 2623 ft | 109 kts | 24° |
| 2026-04-26 03:31 | 28.00598 | -82.27733 | 2606 ft | 105 kts | 20° |
| 2026-04-26 03:32 | 28.01300 | -82.27458 | 2520 ft | 105 kts | 21° |
| 2026-04-26 03:32 | 28.01945 | -82.27127 | 2530 ft | 102 kts | 28° |
| 2026-04-26 03:32 | 28.02582 | -82.26763 | 2463 ft | 105 kts | 28° |
| 2026-04-26 03:32 | 28.03243 | -82.26394 | 2413 ft | 106 kts | 26° |
| 2026-04-26 03:33 | 28.03907 | -82.26032 | 2387 ft | 104 kts | 28° |
| 2026-04-26 03:33 | 28.04513 | -82.25710 | 2461 ft | 96 kts | 26° |
| 2026-04-26 03:33 | 28.05155 | -82.25407 | 2477 ft | 105 kts | 23° |
| 2026-04-26 03:33 | 28.05844 | -82.25103 | 2540 ft | 108 kts | 22° |
| 2026-04-26 03:34 | 28.06552 | -82.24822 | 2588 ft | 110 kts | 19° |
| 2026-04-26 03:34 | 28.07286 | -82.24532 | 2603 ft | 114 kts | 21° |
| 2026-04-26 03:34 | 28.08029 | -82.24210 | 2638 ft | 113 kts | 22° |
| 2026-04-26 03:34 | 28.08758 | -82.23903 | 2686 ft | 113 kts | 20° |
| 2026-04-26 03:35 | 28.09497 | -82.23590 | 2453 ft | 113 kts | 26° |
| 2026-04-26 03:35 | 28.10197 | -82.23221 | 2419 ft | 112 kts | 25° |
| 2026-04-26 03:35 | 28.10911 | -82.22875 | 2398 ft | 109 kts | 25° |
| 2026-04-26 03:35 | 28.11590 | -82.22528 | 2408 ft | 106 kts | 26° |
| 2026-04-26 03:36 | 28.12262 | -82.22182 | 2382 ft | 107 kts | 25° |
| 2026-04-26 03:36 | 28.12952 | -82.21899 | 2404 ft | 105 kts | 16° |
| 2026-04-26 03:36 | 28.13662 | -82.21729 | 2396 ft | 105 kts | 12° |
| 2026-04-26 03:36 | 28.14376 | -82.21601 | 2391 ft | 104 kts | 10° |
| 2026-04-26 03:37 | 28.15087 | -82.21420 | 2375 ft | 105 kts | 15° |
| 2026-04-26 03:37 | 28.15788 | -82.21197 | 2340 ft | 104 kts | 17° |
| 2026-04-26 03:37 | 28.16487 | -82.20979 | 2292 ft | 105 kts | 15° |
| 2026-04-26 03:37 | 28.17185 | -82.20750 | 2268 ft | 104 kts | 17° |
| 2026-04-26 03:38 | 28.17885 | -82.20546 | 2224 ft | 104 kts | 15° |
| 2026-04-26 03:38 | 28.18589 | -82.20320 | 2172 ft | 105 kts | 15° |
| 2026-04-26 03:38 | 28.19290 | -82.20117 | 2138 ft | 105 kts | 15° |
| 2026-04-26 03:38 | 28.19960 | -82.19880 | 2042 ft | 97 kts | 20° |
| 2026-04-26 03:39 | 28.20589 | -82.19495 | 1744 ft | 105 kts | 38° |
| 2026-04-26 03:39 | 28.21147 | -82.18989 | 1580 ft | 101 kts | 39° |
| 2026-04-26 03:39 | 28.21675 | -82.18483 | 1364 ft | 99 kts | 41° |
| 2026-04-26 03:39 | 28.22176 | -82.17970 | 1151 ft | 92 kts | 41° |
| 2026-04-26 03:40 | 28.22639 | -82.17496 | 1046 ft | 90 kts | 41° |
| 2026-04-26 03:40 | 28.23103 | -82.17019 | 939 ft | 90 kts | 37° |
| 2026-04-26 03:40 | 28.23620 | -82.16615 | 894 ft | 86 kts | 37° |
| 2026-04-26 03:40 | 28.24051 | -82.16221 | 829 ft | 76 kts | 40° |
| 2026-04-26 03:41 | 28.24377 | -82.15765 | 679 ft | 75 kts | 65° |
| 2026-04-26 03:41 | 28.24352 | -82.15225 | 517 ft | 72 kts | 134° |
| 2026-04-26 03:41 | 28.23887 | -82.15036 | 339 ft | 73 kts | 182° |
| 2026-04-26 03:41 | 28.23458 | -82.15296 | 136 ft | 71 kts | 219° |
| 2026-04-26 03:42 | 28.23164 | -82.15598 | 92 ft | 44 kts | 222° |
| 2026-04-26 03:42 | 28.22980 | -82.15791 | 92 ft | 30 kts | 225° |
| 2026-04-26 03:42 | 28.22848 | -82.15923 | 95 ft | 20 kts | 226° |
| 2026-04-26 03:42 | 28.22774 | -82.16005 | 97 ft | 12 kts | 220° |
| 2026-04-26 03:43 | 28.22771 | -82.16069 | 97 ft | 9 kts | 321° |
| 2026-04-26 03:43 | 28.22820 | -82.16118 | 95 ft | 10 kts | 319° |
| 2026-04-26 03:43 | 28.22853 | -82.16089 | 95 ft | 6 kts | 43° |
| 2026-04-26 03:43 | 28.22889 | -82.16052 | 94 ft | 11 kts | 42° |
| 2026-04-26 03:44 | 28.22935 | -82.16006 | 92 ft | 15 kts | 43° |
| 2026-04-26 03:44 | 28.23003 | -82.16020 | 91 ft | 12 kts | 313° |
| 2026-04-26 03:44 | 28.23041 | -82.16030 | 93 ft | 0 kts | 44° |